createdAt,value
2017-11-09T00:01:31.156Z,52.53
2017-11-09T00:04:05.001Z,52.57
2017-11-09T00:06:33.456Z,54.30
2017-11-09T00:09:01.561Z,53.93
2017-11-09T00:11:30.076Z,52.43
2017-11-09T00:13:58.884Z,55.33
2017-11-09T00:16:26.976Z,55.57
2017-11-09T00:18:55.132Z,52.07
2017-11-09T00:21:24.073Z,50.23
2017-11-09T00:23:53.122Z,52.23
2017-11-09T00:26:21.320Z,46.87
2017-11-09T00:28:50.129Z,47.77
2017-11-09T00:31:18.305Z,46.90
2017-11-09T00:33:46.402Z,46.67
2017-11-09T00:36:15.445Z,44.00
2017-11-09T00:38:43.607Z,43.77
2017-11-09T00:41:12.329Z,46.47
2017-11-09T00:43:41.136Z,48.50
2017-11-09T00:46:10.045Z,48.77
2017-11-09T00:48:38.245Z,41.73
2017-11-09T00:51:06.535Z,47.20
2017-11-09T00:53:35.141Z,43.50
2017-11-09T00:56:03.677Z,48.80
2017-11-09T00:58:32.325Z,44.33
2017-11-09T01:01:00.970Z,46.63
2017-11-09T01:03:29.064Z,47.00
2017-11-09T01:05:57.281Z,52.60
2017-11-09T01:08:26.708Z,50.13
2017-11-09T01:10:55.617Z,46.93
2017-11-09T01:13:23.844Z,47.30
2017-11-09T01:15:52.624Z,44.77
2017-11-09T01:18:20.730Z,45.43
2017-11-09T01:20:49.689Z,42.33
2017-11-09T01:23:17.779Z,53.80
2017-11-09T01:25:47.315Z,46.07
2017-11-09T01:28:16.170Z,46.70
2017-11-09T01:30:44.905Z,41.33
2017-11-09T01:33:13.045Z,49.53
2017-11-09T01:35:42.105Z,43.73
2017-11-09T01:38:10.211Z,46.00
2017-11-09T01:40:39.657Z,45.70
2017-11-09T01:43:08.673Z,48.23
2017-11-09T01:45:37.498Z,54.93
2017-11-09T01:48:06.421Z,54.77
2017-11-09T01:50:34.669Z,50.77
2017-11-09T01:53:03.622Z,62.73
2017-11-09T01:55:31.789Z,47.10
2017-11-09T01:58:00.485Z,55.73
2017-11-09T02:00:29.138Z,46.33
2017-11-09T02:02:57.325Z,48.67
2017-11-09T02:05:25.648Z,51.73
2017-11-09T02:07:53.857Z,49.43
2017-11-09T02:10:22.727Z,52.43
2017-11-09T02:12:51.783Z,50.40
2017-11-09T02:15:19.950Z,57.60
2017-11-09T02:17:48.142Z,53.03
2017-11-09T02:20:16.497Z,59.53
2017-11-09T02:22:44.688Z,50.80
2017-11-09T02:25:13.606Z,53.13
2017-11-09T02:27:42.704Z,53.70
2017-11-09T02:30:11.566Z,57.20
2017-11-09T02:32:40.254Z,50.37
2017-11-09T02:35:08.629Z,65.43
2017-11-09T02:37:36.853Z,57.80
2017-11-09T02:40:06.298Z,53.23
2017-11-09T02:42:34.577Z,56.83
2017-11-09T02:45:02.779Z,50.60
2017-11-09T02:47:31.606Z,56.57
2017-11-09T02:50:01.150Z,59.13
2017-11-09T02:52:30.450Z,53.10
2017-11-09T02:54:58.628Z,60.83
2017-11-09T02:57:27.209Z,62.40
2017-11-09T02:59:55.594Z,63.00
2017-11-09T03:02:23.809Z,68.10
2017-11-09T03:04:52.037Z,60.43
2017-11-09T03:07:20.232Z,60.63
2017-11-09T03:09:48.342Z,56.60
2017-11-09T03:12:17.302Z,55.00
2017-11-09T03:14:46.015Z,55.87
2017-11-09T03:17:14.613Z,61.93
2017-11-09T03:19:42.829Z,62.83
2017-11-09T03:22:11.012Z,62.60
2017-11-09T03:24:39.185Z,59.57
2017-11-09T03:27:08.219Z,52.07
2017-11-09T03:29:36.524Z,60.13
2017-11-09T03:32:05.163Z,57.67
2017-11-09T03:34:33.993Z,51.60
2017-11-09T03:37:02.088Z,50.93
2017-11-09T03:39:31.013Z,57.87
2017-11-09T03:42:00.006Z,64.67
2017-11-09T03:44:28.801Z,56.50
2017-11-09T03:46:57.726Z,52.97
2017-11-09T03:49:26.287Z,55.63
2017-11-09T03:51:54.467Z,55.50
2017-11-09T03:54:22.562Z,55.70
2017-11-09T03:56:52.225Z,58.43
2017-11-09T03:59:20.324Z,62.43
2017-11-09T04:01:49.054Z,64.87
2017-11-09T04:04:18.556Z,62.73
2017-11-09T04:06:47.425Z,51.63
2017-11-09T04:09:15.604Z,62.07
2017-11-09T04:11:43.846Z,51.93
2017-11-09T04:14:11.950Z,50.77
2017-11-09T04:16:41.117Z,58.17
2017-11-09T04:19:09.363Z,51.17
2017-11-09T04:21:38.202Z,51.57
2017-11-09T04:24:06.441Z,57.83
2017-11-09T04:26:35.431Z,52.33
2017-11-09T04:29:04.369Z,55.63
2017-11-09T04:31:33.293Z,54.27
2017-11-09T04:34:02.325Z,68.80
2017-11-09T04:36:31.285Z,54.83
2017-11-09T04:38:59.389Z,51.30
2017-11-09T04:41:27.792Z,54.40
2017-11-09T04:43:56.634Z,59.20
2017-11-09T04:46:26.067Z,61.17
2017-11-09T04:48:55.062Z,56.17
2017-11-09T04:51:23.853Z,51.73
2017-11-09T04:53:51.956Z,54.33
2017-11-09T04:56:20.262Z,57.40
2017-11-09T04:58:48.376Z,47.23
2017-11-09T05:01:17.082Z,49.47
2017-11-09T05:03:45.971Z,52.40
2017-11-09T05:06:14.852Z,48.47
2017-11-09T05:08:43.037Z,54.27
2017-11-09T05:11:11.258Z,44.00
2017-11-09T05:13:40.026Z,45.33
2017-11-09T05:16:08.599Z,43.13
2017-11-09T05:18:37.467Z,43.00
2017-11-09T05:21:06.208Z,44.07
2017-11-09T05:23:34.297Z,48.07
2017-11-09T05:26:02.605Z,41.07
2017-11-09T05:28:30.817Z,40.47
2017-11-09T05:30:59.268Z,41.27
2017-11-09T05:33:27.650Z,41.10
2017-11-09T05:35:55.834Z,52.10
2017-11-09T05:38:23.946Z,37.30
2017-11-09T05:40:52.349Z,44.10
2017-11-09T05:43:21.272Z,45.13
2017-11-09T05:45:50.073Z,36.03
2017-11-09T05:48:19.113Z,41.37
2017-11-09T06:03:53.399Z,43.20
2017-11-09T06:06:22.469Z,40.07
2017-11-09T06:08:51.151Z,31.40
2017-11-09T06:11:19.446Z,33.57
2017-11-09T06:13:47.780Z,39.50
2017-11-09T06:16:17.861Z,35.03
2017-11-09T06:18:46.925Z,29.73
2017-11-09T06:21:15.030Z,30.37
2017-11-09T06:23:43.214Z,35.80
2017-11-09T06:26:11.529Z,29.07
2017-11-09T06:28:45.739Z,36.93
2017-11-09T06:34:05.977Z,35.53
2017-11-09T06:36:34.172Z,33.17
2017-11-09T06:39:02.286Z,35.23
2017-11-09T06:41:30.849Z,32.93
2017-11-09T06:44:00.588Z,29.37
2017-11-09T06:46:29.333Z,26.10
2017-11-09T06:48:58.182Z,25.83
2017-11-09T06:51:27.176Z,25.20
2017-11-09T06:53:56.614Z,31.53
2017-11-09T06:56:24.802Z,30.23
2017-11-09T06:58:53.114Z,28.50
2017-11-09T07:01:21.316Z,26.13
2017-11-09T07:03:50.183Z,19.00
2017-11-09T07:06:18.967Z,25.80
2017-11-09T07:08:47.166Z,22.00
2017-11-09T07:11:16.097Z,22.23
2017-11-09T07:13:44.805Z,23.50
2017-11-09T07:16:13.354Z,24.27
2017-11-09T07:18:42.042Z,24.27
2017-11-09T07:21:11.065Z,22.63
2017-11-09T07:23:39.897Z,22.83
2017-11-09T07:26:08.028Z,22.93
2017-11-09T07:28:36.350Z,29.03
2017-11-09T07:31:05.259Z,21.10
2017-11-09T07:33:34.695Z,24.70
2017-11-09T07:36:03.843Z,24.93
2017-11-09T07:38:32.430Z,23.90
2017-11-09T07:41:01.366Z,23.60
2017-11-09T07:43:29.617Z,20.83
2017-11-09T07:45:58.541Z,21.47
2017-11-09T07:48:26.704Z,19.33
2017-11-09T07:50:55.400Z,22.47
2017-11-09T07:53:23.573Z,20.20
2017-11-09T07:55:52.270Z,24.87
2017-11-09T07:58:20.606Z,20.30
2017-11-09T08:00:49.545Z,20.80
2017-11-09T08:03:18.480Z,22.33
2017-11-09T08:05:47.553Z,20.50
2017-11-09T08:08:16.002Z,23.83
2017-11-09T08:10:44.183Z,27.23
2017-11-09T08:13:12.494Z,20.17
2017-11-09T08:15:40.688Z,23.67
2017-11-09T08:18:08.950Z,23.40
2017-11-09T08:20:37.175Z,28.20
2017-11-09T08:23:06.116Z,25.33
2017-11-09T08:25:36.425Z,23.27
2017-11-09T08:28:05.845Z,22.23
2017-11-09T08:30:36.417Z,19.83
2017-11-09T08:33:08.709Z,21.87
2017-11-09T08:35:37.061Z,21.30
2017-11-09T08:38:06.278Z,24.23
2017-11-09T08:40:34.593Z,22.63
2017-11-09T08:43:02.707Z,18.80
2017-11-09T08:45:30.922Z,26.53
2017-11-09T08:47:59.197Z,19.53
2017-11-09T08:50:27.791Z,21.23
2017-11-09T08:52:56.466Z,20.70
2017-11-09T08:55:24.734Z,20.93
2017-11-09T08:57:53.242Z,26.80
2017-11-09T09:00:21.430Z,22.97
2017-11-09T09:02:49.759Z,32.67
2017-11-09T09:05:18.357Z,25.23
2017-11-09T09:07:47.006Z,19.73
2017-11-09T09:10:15.388Z,26.57
2017-11-09T09:12:43.578Z,21.27
2017-11-09T09:15:12.664Z,22.33
2017-11-09T09:17:41.123Z,18.77
2017-11-09T09:20:09.374Z,23.70
2017-11-09T09:22:49.874Z,18.77
2017-11-09T09:25:19.055Z,24.40
2017-11-09T09:27:47.930Z,19.20
2017-11-09T09:30:19.234Z,19.73
2017-11-09T09:32:50.018Z,27.87
2017-11-09T09:35:20.494Z,26.23
2017-11-09T09:37:55.382Z,22.60
2017-11-09T09:40:26.073Z,18.87
2017-11-09T09:42:55.089Z,18.70
2017-11-09T09:45:23.678Z,19.80
2017-11-09T09:47:52.563Z,21.03
2017-11-09T09:50:20.931Z,25.53
2017-11-09T09:52:50.294Z,21.30
2017-11-09T09:55:18.718Z,21.33
2017-11-09T09:57:48.254Z,23.00
2017-11-09T10:00:16.534Z,19.60
2017-11-09T10:02:44.854Z,20.80
2017-11-09T10:05:13.070Z,21.87
2017-11-09T10:07:41.426Z,20.90
2017-11-09T10:10:11.323Z,21.53
2017-11-09T10:12:40.026Z,19.00
2017-11-09T10:15:08.969Z,21.53
2017-11-09T10:17:37.269Z,23.17
2017-11-09T10:20:05.477Z,19.70
2017-11-09T10:22:34.970Z,21.93
2017-11-09T10:25:03.273Z,19.33
2017-11-09T10:27:32.197Z,26.40
2017-11-09T10:30:00.326Z,22.67
2017-11-09T10:32:31.580Z,32.40
2017-11-09T10:34:59.689Z,23.23
2017-11-09T10:37:28.303Z,20.00
2017-11-09T10:39:57.165Z,20.87
2017-11-09T10:42:26.793Z,21.07
2017-11-09T10:44:55.037Z,23.80
2017-11-09T10:47:23.374Z,20.57
2017-11-09T10:49:51.585Z,22.20
2017-11-09T10:52:19.731Z,30.27
2017-11-09T10:54:48.059Z,20.50
2017-11-09T10:57:16.245Z,20.07
2017-11-09T10:59:44.854Z,20.73
2017-11-09T11:02:13.080Z,20.30
2017-11-09T11:04:41.285Z,24.90
2017-11-09T11:07:09.522Z,19.97
2017-11-09T11:09:38.092Z,20.60
2017-11-09T11:12:07.889Z,25.47
2017-11-09T11:14:37.282Z,22.93
2017-11-09T11:17:05.533Z,27.77
2017-11-09T11:19:33.738Z,20.20
2017-11-09T11:22:02.547Z,20.67
2017-11-09T11:24:31.533Z,21.93
2017-11-09T11:26:59.718Z,24.57
2017-11-09T11:29:28.678Z,24.70
2017-11-09T11:31:57.005Z,20.40
2017-11-09T11:34:25.879Z,24.13
2017-11-09T11:36:54.060Z,19.50
2017-11-09T11:39:23.508Z,24.50
2017-11-09T11:41:52.191Z,19.87
2017-11-09T11:44:21.035Z,22.17
2017-11-09T11:46:49.991Z,20.67
2017-11-09T11:49:18.184Z,19.27
2017-11-09T11:51:46.365Z,21.00
2017-11-09T11:54:14.598Z,21.37
2017-11-09T11:56:43.337Z,20.93
2017-11-09T11:59:12.135Z,20.70
2017-11-09T12:01:41.125Z,22.20
2017-11-09T12:04:09.977Z,24.47
2017-11-09T12:06:38.073Z,25.27
2017-11-09T12:09:06.977Z,27.63
2017-11-09T12:11:35.084Z,20.20
2017-11-09T12:14:03.210Z,20.10
2017-11-09T12:16:31.451Z,20.47
2017-11-09T12:18:59.562Z,21.53
2017-11-09T12:21:27.740Z,20.33
2017-11-09T12:23:55.991Z,21.07
2017-11-09T12:26:24.179Z,22.27
2017-11-09T12:28:52.293Z,24.53
2017-11-09T12:31:21.257Z,20.60
2017-11-09T12:33:49.362Z,22.77
2017-11-09T12:36:18.795Z,26.77
2017-11-09T12:38:47.757Z,22.00
2017-11-09T12:41:17.974Z,24.23
2017-11-09T12:43:46.661Z,23.57
2017-11-09T12:46:15.135Z,22.70
2017-11-09T12:48:44.611Z,22.23
2017-11-09T12:51:12.742Z,23.77
2017-11-09T12:53:41.809Z,24.73
2017-11-09T12:56:09.919Z,27.90
2017-11-09T12:58:38.860Z,25.43
2017-11-09T13:01:07.103Z,26.93
2017-11-09T13:03:35.209Z,22.10
2017-11-09T13:06:03.411Z,26.23
2017-11-09T13:08:31.659Z,26.23
2017-11-09T13:10:59.988Z,24.30
2017-11-09T13:13:28.851Z,24.87
2017-11-09T13:15:57.231Z,23.90
2017-11-09T13:18:25.335Z,23.80
2017-11-09T13:20:54.178Z,23.33
2017-11-09T13:23:22.487Z,30.30
2017-11-09T13:25:50.675Z,26.40
2017-11-09T13:28:18.822Z,23.83
2017-11-09T13:30:47.156Z,22.63
2017-11-09T13:33:15.275Z,24.20
2017-11-09T13:35:43.483Z,23.20
2017-11-09T13:38:12.550Z,22.93
2017-11-09T13:40:40.736Z,22.20
2017-11-09T13:43:10.890Z,24.93
2017-11-09T13:45:40.958Z,26.10
2017-11-09T13:48:09.326Z,23.80
2017-11-09T13:50:37.431Z,25.83
2017-11-09T13:53:05.666Z,23.37
2017-11-09T13:55:33.858Z,24.43
2017-11-09T13:58:02.026Z,30.93
2017-11-09T14:00:30.342Z,26.70
2017-11-09T14:02:59.186Z,23.57
2017-11-09T14:05:27.393Z,22.57
2017-11-09T14:07:55.689Z,24.80
2017-11-09T14:10:24.638Z,24.40
2017-11-09T14:12:52.750Z,24.27
2017-11-09T14:15:20.974Z,29.90
2017-11-09T14:17:49.094Z,25.20
2017-11-09T14:20:17.201Z,37.47
2017-11-09T14:22:45.506Z,24.70
2017-11-09T14:25:13.618Z,25.53
2017-11-09T14:27:41.950Z,25.03
2017-11-09T14:30:10.285Z,24.50
2017-11-09T14:32:38.393Z,25.57
2017-11-09T14:35:06.516Z,30.90
2017-11-09T14:37:34.817Z,25.90
2017-11-09T14:40:03.730Z,26.93
2017-11-09T14:42:32.583Z,27.50
2017-11-09T14:45:00.919Z,29.20
2017-11-09T14:47:29.131Z,25.67
2017-11-09T14:49:57.457Z,23.73
2017-11-09T14:52:25.757Z,23.83
2017-11-09T14:54:53.941Z,25.30
2017-11-09T14:57:22.122Z,25.13
2017-11-09T14:59:50.444Z,25.53
2017-11-09T15:02:19.372Z,24.70
2017-11-09T15:04:47.554Z,24.27
2017-11-09T15:07:15.873Z,26.50
2017-11-09T15:09:44.131Z,23.50
2017-11-09T15:12:12.317Z,26.43
2017-11-09T15:14:40.633Z,24.67
2017-11-09T15:17:09.514Z,24.97
2017-11-09T15:19:38.506Z,25.00
2017-11-09T15:22:07.562Z,25.10
2017-11-09T15:24:35.816Z,26.40
2017-11-09T15:27:04.081Z,24.20
2017-11-09T15:29:32.530Z,30.90
2017-11-09T15:32:01.629Z,28.70
2017-11-09T15:34:29.936Z,23.73
2017-11-09T15:36:58.250Z,25.07
2017-11-09T15:39:26.470Z,32.73
2017-11-09T15:41:55.418Z,24.60
2017-11-09T15:44:23.637Z,23.93
2017-11-09T15:46:52.756Z,25.63
2017-11-09T15:49:20.947Z,24.47
2017-11-09T15:51:49.308Z,25.03
2017-11-09T15:54:18.164Z,24.17
2017-11-09T15:56:46.266Z,30.27
2017-11-09T15:59:15.223Z,25.53
2017-11-09T16:01:43.425Z,25.77
2017-11-09T16:04:12.280Z,25.37
2017-11-09T16:06:42.504Z,28.73
2017-11-09T16:09:10.686Z,27.73
2017-11-09T16:11:38.885Z,28.33
2017-11-09T16:14:07.192Z,27.97
2017-11-09T16:16:35.314Z,25.30
2017-11-09T16:19:03.510Z,27.17
2017-11-09T16:21:31.973Z,26.57
2017-11-09T16:24:00.075Z,25.17
2017-11-09T16:26:29.070Z,24.97
2017-11-09T16:28:58.964Z,27.60
2017-11-09T16:31:27.171Z,25.33
2017-11-09T16:33:56.008Z,27.53
2017-11-09T16:36:24.325Z,27.30
2017-11-09T16:38:52.434Z,25.73
2017-11-09T16:41:20.618Z,24.33
2017-11-09T16:43:48.926Z,26.13
2017-11-09T16:46:17.121Z,25.57
2017-11-09T16:48:45.302Z,27.83
2017-11-09T16:51:13.547Z,26.03
2017-11-09T16:53:41.812Z,28.23
2017-11-09T16:56:09.919Z,30.20
2017-11-09T16:58:38.229Z,32.27
2017-11-09T17:01:07.076Z,27.43
2017-11-09T17:03:35.278Z,27.13
2017-11-09T17:06:03.585Z,28.23
2017-11-09T17:08:31.700Z,29.30
2017-11-09T17:10:59.816Z,26.87
2017-11-09T17:13:28.849Z,26.27
2017-11-09T17:15:57.592Z,24.33
2017-11-09T17:18:32.351Z,22.67
2017-11-09T17:21:01.250Z,23.80
2017-11-09T17:23:30.067Z,25.00
2017-11-09T17:25:58.790Z,23.93
2017-11-09T17:28:26.919Z,29.20
2017-11-09T17:30:55.473Z,28.70
2017-11-09T17:33:25.253Z,27.17
2017-11-09T17:35:53.920Z,24.97
2017-11-09T17:38:22.553Z,29.70
2017-11-09T17:40:52.282Z,28.00
2017-11-09T17:43:20.388Z,24.67
2017-11-09T17:45:48.600Z,25.00
2017-11-09T17:48:18.246Z,25.43
2017-11-09T17:50:46.997Z,27.80
2017-11-09T17:53:15.870Z,26.53
2017-11-09T17:55:44.883Z,27.63
2017-11-09T17:58:13.743Z,28.57
2017-11-09T18:00:41.862Z,24.83
2017-11-09T18:03:10.876Z,26.23
2017-11-09T18:05:39.592Z,27.63
2017-11-09T18:08:08.426Z,26.63
2017-11-09T18:10:37.922Z,27.17
2017-11-09T18:13:06.657Z,27.20
2017-11-09T18:15:34.840Z,27.23
2017-11-09T18:18:03.741Z,27.47
2017-11-09T18:20:32.460Z,27.00
2017-11-09T18:23:02.119Z,26.47
2017-11-09T18:25:30.902Z,27.73
2017-11-09T18:27:59.013Z,27.13
2017-11-09T18:30:27.159Z,25.37
2017-11-09T18:32:56.105Z,27.07
2017-11-09T18:35:24.955Z,26.17
2017-11-09T18:37:53.511Z,30.97
2017-11-09T18:40:22.322Z,27.87
2017-11-09T18:42:50.956Z,26.73
2017-11-09T18:45:19.165Z,27.23
2017-11-09T18:47:47.821Z,30.60
2017-11-09T18:50:16.446Z,26.87
2017-11-09T18:52:45.397Z,31.53
2017-11-09T18:55:13.642Z,29.60
2017-11-09T18:57:42.355Z,29.17
2017-11-09T19:00:10.614Z,29.13
2017-11-09T19:02:39.079Z,28.87
2017-11-09T19:05:07.872Z,28.73
2017-11-09T19:07:36.652Z,33.07
2017-11-09T19:10:04.890Z,32.20
2017-11-09T19:12:33.735Z,35.40
2017-11-09T19:15:01.966Z,32.80
2017-11-09T19:17:30.938Z,38.07
2017-11-09T19:19:59.789Z,28.43
2017-11-09T19:22:28.699Z,38.63
2017-11-09T19:24:57.516Z,31.37
2017-11-09T19:27:26.161Z,28.33
2017-11-09T19:29:54.482Z,29.87
2017-11-09T19:32:22.909Z,35.30
2017-11-09T19:34:51.769Z,34.47
2017-11-09T19:37:21.381Z,39.33
2017-11-09T19:39:50.622Z,33.33
2017-11-09T19:42:19.357Z,37.27
2017-11-09T19:44:47.555Z,35.50
2017-11-09T19:47:16.538Z,45.17
2017-11-09T19:49:45.397Z,36.80
2017-11-09T19:52:14.013Z,43.70
2017-11-09T19:54:43.791Z,56.93
2017-11-09T19:57:11.969Z,35.23
2017-11-09T19:59:40.309Z,46.47
2017-11-09T20:02:08.625Z,41.63
2017-11-09T20:04:36.824Z,44.90
2017-11-09T20:07:05.385Z,41.37
2017-11-09T20:09:34.137Z,41.13
2017-11-09T20:12:02.994Z,44.30
2017-11-09T20:14:31.830Z,31.30
2017-11-09T20:17:00.058Z,44.43
2017-11-09T20:19:28.914Z,53.47
2017-11-09T20:21:57.690Z,48.20
2017-11-09T20:24:25.984Z,36.37
2017-11-09T20:26:54.533Z,45.90
2017-11-09T20:29:23.017Z,37.57
2017-11-09T20:31:51.239Z,43.20
2017-11-09T20:34:19.341Z,33.73
2017-11-09T20:36:48.829Z,46.60
2017-11-09T20:39:20.971Z,40.80
2017-11-09T20:41:50.455Z,52.93
2017-11-09T20:44:18.781Z,35.97
2017-11-09T20:46:47.827Z,38.10
2017-11-09T20:49:16.017Z,43.40
2017-11-09T20:51:46.049Z,39.17
2017-11-09T20:54:14.961Z,46.60
2017-11-09T20:56:43.796Z,43.30
2017-11-09T20:59:12.628Z,44.47
2017-11-09T21:01:41.446Z,38.77
2017-11-09T21:04:10.353Z,43.90
2017-11-09T21:06:40.201Z,39.90
2017-11-09T21:09:08.499Z,46.30
2017-11-09T21:11:37.046Z,40.57
2017-11-09T21:14:05.792Z,39.00
2017-11-09T21:16:34.792Z,41.67
2017-11-09T21:19:03.736Z,48.40
2017-11-09T21:21:31.857Z,58.00
2017-11-09T21:24:00.089Z,44.20
2017-11-09T21:26:28.202Z,46.03
2017-11-09T21:28:56.842Z,46.63
2017-11-09T21:31:25.070Z,41.37
2017-11-09T21:33:53.203Z,48.27
2017-11-09T21:36:21.402Z,45.20
2017-11-09T21:38:50.309Z,47.77
2017-11-09T21:41:18.422Z,55.40
2017-11-09T21:43:46.605Z,42.37
2017-11-09T21:46:14.896Z,40.13
2017-11-09T21:48:43.082Z,42.80
2017-11-09T21:51:11.177Z,47.40
2017-11-09T21:53:39.907Z,41.93
2017-11-09T21:56:09.365Z,46.63
2017-11-09T21:58:37.988Z,49.60
2017-11-09T22:01:07.733Z,42.50
2017-11-09T22:03:35.973Z,42.80
2017-11-09T22:06:04.810Z,45.80
2017-11-09T22:08:33.051Z,42.70
2017-11-09T22:11:02.429Z,43.50
2017-11-09T22:13:31.125Z,54.10
2017-11-09T22:16:00.661Z,44.27
2017-11-09T22:18:28.756Z,48.77
2017-11-09T22:20:56.940Z,48.60
2017-11-09T22:23:25.241Z,46.30
2017-11-09T22:25:53.826Z,49.37
2017-11-09T22:28:24.013Z,43.40
2017-11-09T22:30:53.052Z,47.20
2017-11-09T22:33:21.264Z,54.10
2017-11-09T22:35:49.523Z,41.33
2017-11-09T22:38:18.573Z,49.03
2017-11-09T22:40:47.152Z,44.80
2017-11-09T22:43:16.163Z,50.27
2017-11-09T22:45:44.966Z,43.53
2017-11-09T22:48:13.057Z,48.67
2017-11-09T22:50:42.003Z,50.33
2017-11-09T22:53:10.301Z,40.53
2017-11-09T22:55:38.744Z,43.73
2017-11-09T22:58:10.324Z,43.80
2017-11-09T23:00:39.061Z,42.23
2017-11-09T23:03:07.721Z,50.97
2017-11-09T23:05:36.041Z,44.77
2017-11-09T23:08:04.313Z,45.40
2017-11-09T23:10:33.114Z,46.03
2017-11-09T23:13:01.861Z,41.40
2017-11-09T23:15:30.900Z,48.20
2017-11-09T23:17:59.731Z,50.50
2017-11-09T23:20:27.850Z,46.63
2017-11-09T23:22:56.161Z,45.30
2017-11-09T23:25:24.733Z,50.03
2017-11-09T23:27:52.830Z,50.63
2017-11-09T23:30:21.866Z,42.60
2017-11-09T23:32:51.113Z,50.13
2017-11-09T23:35:19.234Z,53.33
2017-11-09T23:37:47.465Z,46.13
2017-11-09T23:40:15.577Z,47.00
2017-11-09T23:42:44.105Z,48.70
2017-11-09T23:45:12.971Z,47.23
2017-11-09T23:47:42.306Z,46.83
2017-11-09T23:50:10.406Z,46.10
2017-11-09T23:52:38.705Z,46.20
2017-11-09T23:55:06.804Z,43.13
2017-11-09T23:57:35.762Z,45.30
